createdAt,value
2018-09-04T00:01:55.280Z,88.50
2018-09-04T00:07:24.857Z,88.70
2018-09-04T00:12:54.149Z,88.80
2018-09-04T00:18:23.837Z,89.00
2018-09-04T00:23:53.155Z,89.30
2018-09-04T00:29:22.440Z,89.40
2018-09-04T00:34:52.781Z,89.60
2018-09-04T00:40:21.991Z,89.60
2018-09-04T00:45:52.301Z,89.80
2018-09-04T00:51:21.555Z,90.00
2018-09-04T00:56:50.792Z,90.10
2018-09-04T01:02:20.055Z,90.10
2018-09-04T01:07:49.278Z,90.20
2018-09-04T01:13:18.558Z,90.30
2018-09-04T01:18:47.815Z,90.40
2018-09-04T01:24:17.071Z,90.50
2018-09-04T01:29:47.162Z,90.50
2018-09-04T01:35:16.474Z,90.70
2018-09-04T01:40:45.729Z,90.80
2018-09-04T01:46:14.942Z,90.90
2018-09-04T01:51:45.203Z,90.90
2018-09-04T01:57:14.552Z,91.00
2018-09-04T02:02:43.772Z,91.10
2018-09-04T02:08:13.011Z,91.10
2018-09-04T02:13:42.314Z,91.20
2018-09-04T02:19:11.547Z,91.30
2018-09-04T02:24:41.564Z,91.70
2018-09-04T02:30:11.957Z,91.50
2018-09-04T02:35:42.047Z,91.70
2018-09-04T02:41:11.366Z,91.80
2018-09-04T02:46:40.584Z,91.90
2018-09-04T02:52:09.942Z,92.00
2018-09-04T02:57:39.188Z,92.10
2018-09-04T03:03:08.450Z,92.10
2018-09-04T03:08:37.658Z,92.30
2018-09-04T03:14:07.211Z,92.40
2018-09-04T03:19:36.431Z,92.50
2018-09-04T03:25:05.761Z,92.60
2018-09-04T03:30:36.079Z,92.70
2018-09-04T03:36:05.320Z,92.70
2018-09-04T03:41:34.663Z,92.80
2018-09-04T03:47:03.975Z,92.80
2018-09-04T03:52:33.253Z,92.80
2018-09-04T03:58:02.656Z,92.80
2018-09-04T04:03:31.880Z,92.80
2018-09-04T04:09:01.359Z,92.80
2018-09-04T04:14:30.675Z,92.80
2018-09-04T04:20:01.172Z,92.80
2018-09-04T04:25:30.537Z,92.80
2018-09-04T04:31:00.010Z,92.90
2018-09-04T04:36:29.503Z,92.90
2018-09-04T04:41:58.837Z,92.90
2018-09-04T04:47:33.469Z,93.00
2018-09-04T04:53:03.023Z,93.10
2018-09-04T04:58:32.319Z,93.00
2018-09-04T05:04:01.727Z,93.10
2018-09-04T05:09:31.124Z,93.10
2018-09-04T05:15:00.419Z,93.20
2018-09-04T05:20:30.368Z,93.20
2018-09-04T05:25:59.888Z,93.20
2018-09-04T05:31:32.320Z,93.20
2018-09-04T05:37:01.580Z,93.30
2018-09-04T05:42:34.175Z,93.30
2018-09-04T05:48:05.567Z,93.40
2018-09-04T05:53:34.812Z,93.50
2018-09-04T05:59:04.085Z,93.50
2018-09-04T06:04:33.377Z,93.60
2018-09-04T06:10:02.641Z,93.60
2018-09-04T06:15:31.958Z,93.70
2018-09-04T06:21:01.243Z,93.70
2018-09-04T06:26:30.614Z,93.70
2018-09-04T06:31:59.971Z,93.70
2018-09-04T06:37:29.381Z,93.70
2018-09-04T06:42:58.701Z,93.70
2018-09-04T06:48:28.115Z,93.70
2018-09-04T06:53:57.444Z,93.80
2018-09-04T06:59:26.755Z,93.80
2018-09-04T07:04:56.107Z,93.80
2018-09-04T07:10:25.414Z,93.90
2018-09-04T07:15:54.700Z,93.90
2018-09-04T07:21:23.995Z,93.90
2018-09-04T07:26:53.263Z,94.00
2018-09-04T07:32:22.524Z,93.90
2018-09-04T07:37:51.955Z,93.90
2018-09-04T07:43:21.228Z,94.10
2018-09-04T07:48:50.457Z,93.90
2018-09-04T07:54:19.783Z,93.90
2018-09-04T07:59:48.999Z,93.90
2018-09-04T08:05:18.232Z,93.90
2018-09-04T08:10:47.460Z,94.00
2018-09-04T08:16:18.932Z,93.90
2018-09-04T08:21:49.171Z,94.00
2018-09-04T08:27:18.388Z,94.00
2018-09-04T08:32:47.693Z,94.10
2018-09-04T08:38:19.048Z,94.10
2018-09-04T08:43:48.933Z,94.10
2018-09-04T08:49:19.344Z,94.20
2018-09-04T08:54:48.625Z,94.20
2018-09-04T09:00:19.110Z,94.20
2018-09-04T09:05:48.357Z,94.30
2018-09-04T09:11:17.595Z,94.30
2018-09-04T09:16:48.121Z,94.40
2018-09-04T09:22:17.239Z,94.40
2018-09-04T09:27:46.645Z,94.40
2018-09-04T09:33:16.053Z,94.40
2018-09-04T09:38:45.308Z,94.40
2018-09-04T09:44:14.584Z,94.40
2018-09-04T09:49:43.904Z,94.50
2018-09-04T09:55:14.240Z,94.60
2018-09-04T10:00:48.709Z,94.60
2018-09-04T10:06:19.564Z,94.70
2018-09-04T10:11:49.037Z,94.70
2018-09-04T10:17:18.259Z,94.70
2018-09-04T10:22:47.577Z,94.80
2018-09-04T10:28:21.305Z,94.70
2018-09-04T10:33:50.548Z,94.80
2018-09-04T10:39:27.266Z,95.00
2018-09-04T10:44:57.745Z,95.00
2018-09-04T10:50:29.103Z,95.00
2018-09-04T10:55:58.476Z,95.10
2018-09-04T11:01:27.880Z,95.00
2018-09-04T11:06:57.248Z,95.00
2018-09-04T11:12:26.807Z,95.00
2018-09-04T11:17:56.256Z,95.10
2018-09-04T11:23:25.630Z,95.10
2018-09-04T11:29:00.181Z,95.00
2018-09-04T11:34:29.563Z,94.90
2018-09-04T11:40:00.534Z,94.90
2018-09-04T11:45:30.100Z,94.80
2018-09-04T11:51:00.069Z,94.80
2018-09-04T11:56:30.440Z,94.90
2018-09-04T12:01:59.907Z,95.00
2018-09-04T12:07:29.144Z,95.10
2018-09-04T12:12:58.470Z,95.00
2018-09-04T12:18:28.203Z,94.70
2018-09-04T12:23:57.608Z,94.80
2018-09-04T12:29:27.739Z,94.90
2018-09-04T12:34:57.148Z,94.80
2018-09-04T12:40:43.332Z,94.90
2018-09-04T12:46:12.655Z,94.80
2018-09-04T12:51:45.712Z,94.90
2018-09-04T12:57:14.976Z,94.90
2018-09-04T13:02:44.232Z,94.80
2018-09-04T13:08:14.347Z,94.70
2018-09-04T13:13:43.574Z,94.60
2018-09-04T13:19:12.823Z,94.40
2018-09-04T13:24:42.072Z,94.40
2018-09-04T13:30:11.373Z,93.50
2018-09-04T13:35:41.776Z,93.30
2018-09-04T13:41:11.088Z,93.00
2018-09-04T13:46:40.379Z,93.10
2018-09-04T13:52:09.572Z,92.80
2018-09-04T13:57:40.017Z,92.10
2018-09-04T14:03:09.293Z,91.90
2018-09-04T14:08:38.617Z,91.10
2018-09-04T14:14:07.952Z,86.70
2018-09-04T14:19:37.195Z,88.80
2018-09-04T14:25:06.416Z,86.70
2018-09-04T14:30:35.785Z,84.30
2018-09-04T14:36:05.068Z,78.80
2018-09-04T14:41:34.326Z,74.60
2018-09-04T14:47:06.790Z,75.50
2018-09-04T14:52:36.307Z,67.60
2018-09-04T14:58:05.939Z,61.90
2018-09-04T15:03:35.255Z,59.50
2018-09-04T15:09:05.600Z,64.40
2018-09-04T15:14:34.858Z,69.20
2018-09-04T15:20:04.078Z,71.40
2018-09-04T15:25:34.476Z,73.50
2018-09-04T15:31:04.751Z,73.40
2018-09-04T15:36:36.004Z,74.00
2018-09-04T15:42:05.279Z,73.60
2018-09-04T15:47:35.300Z,73.30
2018-09-04T15:53:04.697Z,74.70
2018-09-04T15:58:34.029Z,75.40
2018-09-04T16:04:03.336Z,76.50
2018-09-04T16:09:32.790Z,76.00
2018-09-04T16:15:02.155Z,76.10
2018-09-04T16:20:31.453Z,76.60
2018-09-04T16:26:01.775Z,76.80
2018-09-04T16:31:31.154Z,76.60
2018-09-04T16:37:00.612Z,76.80
2018-09-04T16:42:30.972Z,77.40
2018-09-04T16:48:00.455Z,77.60
2018-09-04T16:53:31.231Z,77.90
2018-09-04T16:59:00.674Z,78.00
2018-09-04T17:04:30.014Z,78.20
2018-09-04T17:09:59.401Z,78.30
2018-09-04T17:16:10.252Z,78.80
2018-09-04T17:21:39.517Z,78.60
2018-09-04T17:27:08.764Z,78.70
2018-09-04T17:32:39.055Z,79.30
2018-09-04T17:38:08.383Z,79.70
2018-09-04T17:43:37.593Z,80.00
2018-09-04T17:49:06.851Z,80.50
2018-09-04T17:54:36.090Z,80.80
2018-09-04T18:00:05.699Z,81.50
2018-09-04T18:05:35.006Z,81.90
2018-09-04T18:11:04.303Z,82.40
2018-09-04T18:16:33.561Z,83.00
2018-09-04T18:22:02.884Z,83.60
2018-09-04T18:27:32.240Z,83.80
2018-09-04T18:33:01.589Z,84.00
2018-09-04T18:38:32.498Z,84.40
2018-09-04T18:44:01.786Z,84.90
2018-09-04T18:49:31.093Z,85.10
2018-09-04T18:55:00.629Z,85.60
2018-09-04T19:00:29.928Z,86.00
2018-09-04T19:05:59.254Z,86.10
2018-09-04T19:11:28.593Z,86.50
2018-09-04T19:16:58.562Z,86.60
2018-09-04T19:22:28.048Z,87.20
2018-09-04T19:27:57.436Z,88.10
2018-09-04T19:33:26.862Z,87.60
2018-09-04T19:38:56.334Z,87.70
2018-09-04T19:44:25.710Z,88.00
2018-09-04T19:49:55.135Z,88.40
2018-09-04T19:55:24.688Z,88.50
2018-09-04T20:00:53.943Z,88.70
2018-09-04T20:06:23.251Z,88.90
2018-09-04T20:11:52.676Z,89.20
2018-09-04T20:17:21.980Z,89.40
2018-09-04T20:22:53.226Z,89.60
2018-09-04T20:28:23.268Z,89.80
2018-09-04T20:33:57.371Z,90.00
2018-09-04T20:39:26.781Z,90.00
2018-09-04T20:44:56.238Z,90.10
2018-09-04T20:50:25.951Z,90.30
2018-09-04T20:55:56.374Z,90.30
2018-09-04T21:01:42.828Z,90.40
2018-09-04T21:07:14.580Z,90.50
2018-09-04T21:12:43.855Z,90.60
2018-09-04T21:18:13.172Z,90.70
2018-09-04T21:23:42.345Z,90.70
2018-09-04T21:29:11.751Z,90.80
2018-09-04T21:34:41.024Z,90.90
2018-09-04T21:40:10.447Z,91.00
2018-09-04T21:45:40.539Z,91.00
2018-09-04T21:51:09.756Z,91.00
2018-09-04T21:56:39.022Z,91.10
2018-09-04T22:02:08.288Z,91.10
2018-09-04T22:07:37.675Z,91.20
2018-09-04T22:13:08.053Z,91.20
2018-09-04T22:18:38.377Z,91.30
2018-09-04T22:24:08.617Z,91.40
2018-09-04T22:29:41.528Z,91.40
2018-09-04T22:35:10.823Z,91.40
2018-09-04T22:40:40.035Z,91.40
2018-09-04T22:46:09.284Z,91.40
2018-09-04T22:51:40.556Z,91.70
2018-09-04T22:57:09.782Z,91.40
2018-09-04T23:02:39.136Z,91.40
2018-09-04T23:08:08.386Z,91.50
2018-09-04T23:13:37.714Z,91.50
2018-09-04T23:19:07.144Z,91.50
2018-09-04T23:24:37.638Z,91.60
2018-09-04T23:30:06.884Z,91.60
2018-09-04T23:35:36.070Z,91.60
2018-09-04T23:41:05.314Z,91.60
2018-09-04T23:46:34.795Z,91.60
2018-09-04T23:52:04.121Z,91.60
2018-09-04T23:57:33.354Z,91.60
